createdAt,value
2023-02-28T00:00:37.934Z,8.90
2023-02-28T00:03:19.151Z,9.40
2023-02-28T00:05:48.020Z,9.70
2023-02-28T00:08:17.232Z,9.47
2023-02-28T00:10:47.381Z,10.23
2023-02-28T00:13:16.602Z,11.33
2023-02-28T00:15:46.392Z,10.33
2023-02-28T00:18:15.615Z,11.03
2023-02-28T00:20:44.407Z,10.40
2023-02-28T00:23:13.480Z,10.93
2023-02-28T00:25:42.313Z,10.97
2023-02-28T00:28:12.773Z,10.73
2023-02-28T00:30:41.634Z,10.50
2023-02-28T00:33:10.935Z,10.47
2023-02-28T00:35:39.805Z,10.90
2023-02-28T00:38:12.010Z,10.43
2023-02-28T00:40:40.806Z,10.50
2023-02-28T00:43:09.982Z,10.47
2023-02-28T00:45:40.954Z,10.53
2023-02-28T00:48:10.054Z,10.27
2023-02-28T00:50:41.503Z,10.00
2023-02-28T00:53:10.585Z,10.33
2023-02-28T00:55:39.351Z,9.33
2023-02-28T00:58:08.435Z,10.10
2023-02-28T01:00:37.412Z,10.47
2023-02-28T01:03:08.024Z,10.17
2023-02-28T01:05:36.912Z,10.07
2023-02-28T01:08:07.362Z,9.67
2023-02-28T01:10:37.547Z,9.30
2023-02-28T01:13:06.734Z,10.13
2023-02-28T01:15:35.786Z,10.07
2023-02-28T01:18:05.079Z,10.23
2023-02-28T01:20:35.323Z,10.73
2023-02-28T01:23:04.401Z,10.17
2023-02-28T01:25:33.242Z,10.70
2023-02-28T01:28:02.328Z,12.03
2023-02-28T01:30:31.129Z,11.40
2023-02-28T01:33:00.270Z,11.23
2023-02-28T01:35:29.117Z,11.43
2023-02-28T01:38:09.518Z,11.30
2023-02-28T01:40:44.654Z,11.83
2023-02-28T01:43:24.681Z,11.07
2023-02-28T01:45:54.703Z,12.90
2023-02-28T01:48:29.575Z,12.13
2023-02-28T01:51:07.466Z,12.07
2023-02-28T01:53:47.735Z,11.10
2023-02-28T01:56:26.201Z,11.87
2023-02-28T01:58:57.194Z,12.20
2023-02-28T02:01:29.824Z,12.43
2023-02-28T02:04:04.533Z,12.43
2023-02-28T02:06:39.696Z,12.63
2023-02-28T02:09:15.400Z,12.63
2023-02-28T02:11:47.092Z,13.07
2023-02-28T02:14:49.762Z,14.17
2023-02-28T02:17:30.993Z,12.87
2023-02-28T02:20:38.241Z,13.50
2023-02-28T02:23:59.150Z,13.33
2023-02-28T02:27:05.959Z,13.47
2023-02-28T02:30:10.735Z,13.40
2023-02-28T02:33:38.374Z,13.57
2023-02-28T02:36:20.426Z,13.57
2023-02-28T02:38:59.834Z,15.20
2023-02-28T02:41:37.509Z,14.93
2023-02-28T02:44:20.159Z,13.53
2023-02-28T02:46:52.802Z,14.13
2023-02-28T02:49:28.556Z,14.77
2023-02-28T02:52:06.152Z,15.17
2023-02-28T02:54:39.384Z,14.13
2023-02-28T02:57:15.768Z,14.80
2023-02-28T02:59:45.815Z,14.43
2023-02-28T03:02:20.049Z,15.33
2023-02-28T03:04:54.725Z,15.47
2023-02-28T03:07:25.634Z,15.30
2023-02-28T03:09:57.029Z,16.70
2023-02-28T03:12:37.267Z,15.73
2023-02-28T03:15:20.335Z,15.47
2023-02-28T03:18:06.619Z,16.47
2023-02-28T03:20:45.227Z,15.83
2023-02-28T03:23:23.561Z,15.80
2023-02-28T03:26:04.116Z,15.93
2023-02-28T03:28:43.096Z,16.73
2023-02-28T03:31:21.475Z,16.30
2023-02-28T03:34:00.394Z,15.57
2023-02-28T03:36:37.532Z,16.13
2023-02-28T03:39:13.717Z,16.47
2023-02-28T03:41:50.776Z,15.73
2023-02-28T03:44:29.349Z,15.47
2023-02-28T03:47:05.636Z,15.80
2023-02-28T03:49:44.360Z,15.90
2023-02-28T03:52:13.510Z,14.97
2023-02-28T03:54:52.839Z,15.67
2023-02-28T03:57:35.044Z,16.23
2023-02-28T04:00:10.865Z,14.90
2023-02-28T04:02:43.083Z,15.27
2023-02-28T04:05:11.938Z,15.00
2023-02-28T04:07:41.112Z,14.67
2023-02-28T04:10:13.867Z,15.33
2023-02-28T04:12:43.105Z,15.70
2023-02-28T04:15:12.409Z,14.80
2023-02-28T04:17:41.451Z,14.50
2023-02-28T04:20:12.686Z,15.63
2023-02-28T04:22:41.782Z,14.17
2023-02-28T04:25:12.127Z,14.87
2023-02-28T04:27:41.164Z,16.23
2023-02-28T04:30:11.987Z,16.97
2023-02-28T04:32:41.249Z,14.47
2023-02-28T04:35:12.467Z,14.73
2023-02-28T04:37:41.627Z,15.13
2023-02-28T04:40:13.410Z,14.77
2023-02-28T04:42:42.425Z,15.10
2023-02-28T04:45:12.317Z,17.40
2023-02-28T04:47:41.389Z,20.00
2023-02-28T04:50:12.005Z,22.53
2023-02-28T04:52:41.116Z,19.10
2023-02-28T04:55:12.386Z,18.60
2023-02-28T04:57:43.645Z,19.13
2023-02-28T05:00:17.769Z,18.80
2023-02-28T05:02:46.856Z,18.23
2023-02-28T05:05:19.180Z,18.07
2023-02-28T05:07:48.264Z,18.33
2023-02-28T05:10:19.085Z,18.83
2023-02-28T05:12:49.045Z,18.70
2023-02-28T05:15:19.147Z,19.20
2023-02-28T05:17:48.291Z,19.80
2023-02-28T05:20:18.148Z,21.37
2023-02-28T05:22:47.494Z,19.10
2023-02-28T05:25:22.606Z,21.90
2023-02-28T05:27:51.859Z,23.17
2023-02-28T05:30:20.929Z,24.63
2023-02-28T05:32:53.813Z,22.70
2023-02-28T05:35:22.748Z,22.53
2023-02-28T05:37:51.873Z,23.60
2023-02-28T05:40:22.308Z,22.23
2023-02-28T05:42:53.216Z,25.30
2023-02-28T05:45:21.950Z,24.13
2023-02-28T05:47:51.136Z,22.57
2023-02-28T05:50:20.119Z,23.03
2023-02-28T05:52:52.221Z,21.30
2023-02-28T05:55:22.423Z,22.63
2023-02-28T05:57:51.431Z,23.87
2023-02-28T06:00:21.312Z,24.67
2023-02-28T06:02:50.395Z,21.40
2023-02-28T06:05:20.371Z,20.83
2023-02-28T06:07:49.464Z,20.60
2023-02-28T06:10:18.644Z,20.47
2023-02-28T06:12:49.132Z,20.17
2023-02-28T06:15:19.118Z,21.00
2023-02-28T06:17:48.157Z,20.03
2023-02-28T06:20:17.249Z,20.60
2023-02-28T06:22:46.333Z,18.03
2023-02-28T06:25:15.141Z,19.00
2023-02-28T06:27:44.636Z,19.60
2023-02-28T06:30:15.737Z,20.00
2023-02-28T06:32:44.823Z,20.43
2023-02-28T06:35:14.784Z,19.83
2023-02-28T06:37:44.971Z,18.70
2023-02-28T06:40:15.070Z,18.23
2023-02-28T06:42:44.376Z,17.17
2023-02-28T06:45:15.013Z,17.73
2023-02-28T06:47:44.667Z,16.00
2023-02-28T06:50:15.172Z,14.87
2023-02-28T06:52:44.260Z,14.27
2023-02-28T06:55:13.359Z,14.83
2023-02-28T06:57:42.445Z,15.80
2023-02-28T07:00:15.296Z,15.50
2023-02-28T07:02:44.383Z,15.70
2023-02-28T07:05:13.315Z,16.47
2023-02-28T07:07:45.341Z,14.20
2023-02-28T07:10:20.199Z,14.70
2023-02-28T07:12:49.492Z,10.93
2023-02-28T07:15:19.696Z,11.63
2023-02-28T07:17:49.024Z,10.33
2023-02-28T07:20:18.314Z,9.80
2023-02-28T07:22:47.061Z,11.38
2023-02-28T07:25:16.525Z,10.30
2023-02-28T07:27:45.344Z,14.67
2023-02-28T07:30:15.469Z,11.53
2023-02-28T07:32:45.696Z,15.43
2023-02-28T07:35:16.225Z,14.23
2023-02-28T07:37:45.155Z,10.03
2023-02-28T07:40:15.730Z,30.07
2023-02-28T07:42:44.841Z,12.83
2023-02-28T07:45:15.617Z,10.43
2023-02-28T07:47:46.496Z,12.40
2023-02-28T07:50:18.298Z,12.07
2023-02-28T07:52:47.139Z,8.95
2023-02-28T07:55:17.672Z,28.88
2023-02-28T07:57:46.895Z,9.40
2023-02-28T08:00:16.781Z,9.10
2023-02-28T08:02:46.957Z,8.70
2023-02-28T08:05:16.323Z,8.00
2023-02-28T08:07:45.335Z,6.80
2023-02-28T08:10:14.456Z,5.65
2023-02-28T08:12:43.282Z,7.53
2023-02-28T08:15:12.910Z,7.88
2023-02-28T08:17:41.871Z,7.13
2023-02-28T08:20:14.336Z,6.22
2023-02-28T08:22:45.855Z,7.53
2023-02-28T08:25:15.137Z,8.05
2023-02-28T08:27:44.203Z,7.15
2023-02-28T08:30:15.022Z,8.15
2023-02-28T08:32:44.043Z,8.13
2023-02-28T08:35:14.560Z,8.20
2023-02-28T08:37:43.578Z,8.10
2023-02-28T08:40:19.000Z,8.80
2023-02-28T08:42:48.139Z,8.60
2023-02-28T08:45:17.549Z,7.82
2023-02-28T08:47:46.393Z,8.10
2023-02-28T08:50:17.619Z,8.23
2023-02-28T08:52:46.507Z,7.75
2023-02-28T08:55:16.318Z,8.32
2023-02-28T08:57:45.586Z,7.63
2023-02-28T09:00:15.930Z,7.70
2023-02-28T09:02:44.859Z,7.80
2023-02-28T09:05:13.968Z,8.07
2023-02-28T09:07:44.216Z,7.35
2023-02-28T09:10:13.771Z,7.43
2023-02-28T09:12:42.652Z,7.43
2023-02-28T09:15:13.014Z,7.30
2023-02-28T09:17:42.174Z,7.47
2023-02-28T09:20:14.256Z,7.97
2023-02-28T09:22:44.463Z,7.63
2023-02-28T09:25:13.564Z,8.20
2023-02-28T09:27:43.122Z,9.27
2023-02-28T09:30:14.332Z,9.90
2023-02-28T09:32:43.238Z,7.78
2023-02-28T09:35:14.440Z,7.32
2023-02-28T09:37:44.599Z,8.65
2023-02-28T09:40:18.496Z,8.05
2023-02-28T09:42:50.643Z,8.05
2023-02-28T09:45:28.963Z,7.88
2023-02-28T09:48:05.335Z,8.10
2023-02-28T09:50:41.023Z,7.88
2023-02-28T09:53:23.305Z,7.47
2023-02-28T09:55:57.996Z,8.70
2023-02-28T09:58:35.902Z,9.05
2023-02-28T10:01:14.483Z,8.50
2023-02-28T10:03:53.534Z,8.38
2023-02-28T10:06:28.296Z,9.20
2023-02-28T10:09:06.289Z,9.48
2023-02-28T10:11:40.034Z,9.32
2023-02-28T10:14:17.944Z,8.35
2023-02-28T10:16:53.122Z,9.80
2023-02-28T10:19:33.690Z,10.48
2023-02-28T10:22:12.821Z,10.30
2023-02-28T10:24:46.612Z,9.55
2023-02-28T10:27:19.649Z,10.18
2023-02-28T10:29:52.282Z,10.38
2023-02-28T10:32:25.505Z,10.30
2023-02-28T10:34:59.751Z,10.43
2023-02-28T10:37:29.022Z,9.80
2023-02-28T10:39:59.294Z,11.35
2023-02-28T10:42:30.909Z,10.55
2023-02-28T10:45:15.156Z,10.05
2023-02-28T10:47:56.482Z,10.32
2023-02-28T10:50:45.296Z,9.98
2023-02-28T10:53:36.064Z,9.73
2023-02-28T10:56:19.827Z,9.63
2023-02-28T10:58:56.994Z,9.55
2023-02-28T11:01:37.934Z,9.43
2023-02-28T11:04:22.602Z,10.25
2023-02-28T11:07:00.417Z,10.07
2023-02-28T11:09:35.970Z,8.40
2023-02-28T11:12:09.941Z,8.88
2023-02-28T11:14:51.250Z,9.48
2023-02-28T11:17:25.344Z,8.65
2023-02-28T11:19:58.398Z,8.77
2023-02-28T11:22:33.661Z,9.63
2023-02-28T11:25:10.923Z,8.90
2023-02-28T11:27:51.080Z,8.20
2023-02-28T11:30:36.608Z,9.20
2023-02-28T11:33:28.342Z,9.13
2023-02-28T11:36:03.688Z,9.05
2023-02-28T11:38:37.690Z,8.95
2023-02-28T11:41:47.899Z,9.38
2023-02-28T11:44:40.818Z,8.80
2023-02-28T11:47:19.757Z,8.80
2023-02-28T11:50:06.239Z,7.60
2023-02-28T11:52:50.861Z,8.40
2023-02-28T11:55:27.936Z,8.32
2023-02-28T11:58:29.877Z,7.40
2023-02-28T12:01:40.020Z,8.38
2023-02-28T12:04:29.351Z,8.02
2023-02-28T12:07:05.908Z,8.50
2023-02-28T12:10:00.320Z,9.43
2023-02-28T12:12:51.849Z,9.10
2023-02-28T12:15:53.832Z,8.82
2023-02-28T12:18:54.786Z,8.40
2023-02-28T12:21:45.432Z,8.88
2023-02-28T12:24:55.061Z,8.90
2023-02-28T12:27:30.538Z,9.38
2023-02-28T12:30:04.898Z,9.57
2023-02-28T12:32:41.223Z,9.45
2023-02-28T12:35:19.764Z,10.43
2023-02-28T12:37:57.912Z,10.68
2023-02-28T12:40:40.231Z,11.15
2023-02-28T12:43:13.833Z,11.52
2023-02-28T12:45:50.104Z,11.38
2023-02-28T12:48:29.403Z,10.15
2023-02-28T12:51:03.249Z,10.85
2023-02-28T12:53:55.297Z,11.77
2023-02-28T12:56:40.940Z,11.82
2023-02-28T12:59:24.559Z,10.52
2023-02-28T13:02:43.373Z,10.90
2023-02-28T13:06:12.775Z,11.50
2023-02-28T13:09:13.481Z,11.00
2023-02-28T13:11:45.887Z,10.80
2023-02-28T13:14:31.430Z,11.27
2023-02-28T13:17:14.168Z,10.60
2023-02-28T13:19:48.729Z,11.30
2023-02-28T13:22:42.200Z,11.43
2023-02-28T13:25:55.549Z,10.90
2023-02-28T13:29:29.491Z,10.18
2023-02-28T13:32:44.016Z,12.15
2023-02-28T13:35:39.915Z,10.85
2023-02-28T13:38:37.095Z,10.25
2023-02-28T13:41:57.213Z,10.65
2023-02-28T13:44:27.837Z,10.10
2023-02-28T13:47:29.944Z,9.65
2023-02-28T13:50:22.935Z,9.68
2023-02-28T13:53:18.254Z,10.25
2023-02-28T13:56:00.872Z,11.25
2023-02-28T13:58:54.920Z,11.95
2023-02-28T14:02:02.722Z,12.40
2023-02-28T14:05:03.655Z,11.05
2023-02-28T14:07:40.728Z,10.30
2023-02-28T14:10:25.514Z,10.57
2023-02-28T14:13:13.397Z,10.93
2023-02-28T14:15:49.403Z,10.10
2023-02-28T14:18:38.341Z,10.40
2023-02-28T14:21:22.171Z,10.02
2023-02-28T14:24:28.638Z,10.63
2023-02-28T14:27:45.019Z,10.77
2023-02-28T14:30:54.112Z,10.35
2023-02-28T14:33:34.202Z,9.32
2023-02-28T14:36:23.555Z,10.30
2023-02-28T14:38:58.555Z,10.00
2023-02-28T14:41:36.359Z,9.27
2023-02-28T14:44:17.902Z,10.23
2023-02-28T14:46:54.306Z,9.75
2023-02-28T14:49:29.654Z,9.40
2023-02-28T14:52:11.868Z,9.75
2023-02-28T14:54:42.296Z,10.68
2023-02-28T14:57:25.484Z,10.50
2023-02-28T15:00:04.879Z,10.43
2023-02-28T15:02:38.097Z,10.52
2023-02-28T15:05:26.547Z,9.38
2023-02-28T15:08:12.824Z,9.65
2023-02-28T15:10:45.829Z,10.38
2023-02-28T15:13:17.195Z,9.52
2023-02-28T15:16:03.977Z,9.18
2023-02-28T15:18:48.567Z,9.38
2023-02-28T15:21:23.057Z,9.15
2023-02-28T15:23:57.196Z,10.15
2023-02-28T15:26:32.444Z,11.40
2023-02-28T15:29:05.740Z,10.93
2023-02-28T15:31:56.871Z,10.35
2023-02-28T15:34:45.100Z,10.25
2023-02-28T15:37:43.250Z,10.80
2023-02-28T15:40:24.573Z,11.80
2023-02-28T15:43:08.369Z,11.48
2023-02-28T15:45:46.260Z,10.32
2023-02-28T15:48:22.859Z,10.40
2023-02-28T15:50:56.921Z,10.85
2023-02-28T15:53:30.828Z,10.80
2023-02-28T15:56:07.538Z,11.18
2023-02-28T15:58:38.840Z,11.23
2023-02-28T16:01:20.739Z,10.82
2023-02-28T16:03:53.502Z,10.52
2023-02-28T16:06:36.729Z,11.07
2023-02-28T16:09:09.441Z,11.57
2023-02-28T16:11:45.284Z,11.40
2023-02-28T16:14:24.050Z,12.70
2023-02-28T16:16:56.936Z,11.80
2023-02-28T16:19:26.412Z,12.43
2023-02-28T16:21:56.916Z,12.25
2023-02-28T16:24:26.555Z,12.65
2023-02-28T16:26:59.107Z,12.50
2023-02-28T16:29:33.040Z,13.00
2023-02-28T16:32:02.674Z,12.60
2023-02-28T16:34:31.928Z,13.27
2023-02-28T16:37:02.132Z,12.93
2023-02-28T16:39:31.329Z,12.32
2023-02-28T16:42:00.287Z,13.27
2023-02-28T16:44:33.988Z,13.95
2023-02-28T16:47:05.181Z,13.07
2023-02-28T16:49:34.490Z,13.50
2023-02-28T16:52:05.634Z,14.02
2023-02-28T16:54:34.823Z,13.43
2023-02-28T16:57:03.938Z,15.45
2023-02-28T16:59:34.351Z,17.20
2023-02-28T17:02:03.383Z,17.05
2023-02-28T17:04:32.723Z,17.45
2023-02-28T17:07:01.535Z,16.52
2023-02-28T17:09:42.018Z,19.23
2023-02-28T17:12:13.121Z,19.85
2023-02-28T17:14:42.259Z,21.20
2023-02-28T17:17:19.084Z,19.15
2023-02-28T17:19:48.395Z,19.27
2023-02-28T17:22:17.154Z,20.15
2023-02-28T17:24:47.622Z,21.17
2023-02-28T17:27:16.698Z,21.33
2023-02-28T17:29:45.786Z,21.27
2023-02-28T17:32:18.754Z,21.60
2023-02-28T17:34:48.035Z,21.75
2023-02-28T17:37:16.961Z,23.10
2023-02-28T17:39:47.786Z,22.08
2023-02-28T17:42:16.805Z,26.60
2023-02-28T17:44:45.884Z,28.92
2023-02-28T17:47:14.989Z,28.17
2023-02-28T17:49:44.123Z,28.15
2023-02-28T17:52:12.947Z,29.17
2023-02-28T17:54:42.067Z,30.13
2023-02-28T17:57:17.404Z,30.05
2023-02-28T17:59:46.547Z,29.75
2023-02-28T18:02:16.966Z,31.50
2023-02-28T18:04:46.097Z,30.65
2023-02-28T18:07:14.902Z,31.03
2023-02-28T18:09:44.024Z,31.53
2023-02-28T18:12:14.243Z,32.63
2023-02-28T18:14:43.510Z,32.07
2023-02-28T18:17:14.260Z,32.80
2023-02-28T18:19:43.534Z,34.13
2023-02-28T18:22:12.367Z,34.83
2023-02-28T18:24:42.063Z,38.47
2023-02-28T18:27:12.498Z,39.90
2023-02-28T18:29:43.032Z,41.43
2023-02-28T18:32:12.064Z,45.53
2023-02-28T18:34:41.208Z,47.95
2023-02-28T18:37:11.849Z,47.83
2023-02-28T18:39:41.258Z,48.53
2023-02-28T18:42:10.188Z,50.97
2023-02-28T18:44:39.580Z,50.75
2023-02-28T18:47:09.994Z,54.73
2023-02-28T18:49:39.216Z,57.97
2023-02-28T18:52:08.049Z,61.67
2023-02-28T18:54:37.398Z,57.40
2023-02-28T18:57:06.726Z,54.73
2023-02-28T18:59:36.610Z,55.37
2023-02-28T19:02:05.497Z,51.03
2023-02-28T19:04:35.961Z,45.30
2023-02-28T19:07:04.892Z,45.30
2023-02-28T19:09:33.995Z,45.58
2023-02-28T19:12:02.845Z,47.27
2023-02-28T19:14:32.251Z,43.93
2023-02-28T19:17:01.166Z,46.25
2023-02-28T19:19:30.819Z,46.43
2023-02-28T19:22:01.086Z,44.58
2023-02-28T19:24:30.546Z,43.70
2023-02-28T19:26:59.381Z,42.70
2023-02-28T19:29:28.573Z,42.83
2023-02-28T19:31:57.553Z,43.10
2023-02-28T19:34:26.792Z,41.90
2023-02-28T19:36:55.590Z,42.33
2023-02-28T19:39:26.110Z,42.47
2023-02-28T19:41:55.255Z,44.83
2023-02-28T19:44:24.353Z,44.23
2023-02-28T19:46:54.526Z,42.37
2023-02-28T19:49:25.985Z,43.00
2023-02-28T19:51:54.948Z,43.77
2023-02-28T19:54:25.628Z,42.45
2023-02-28T19:56:57.599Z,42.37
2023-02-28T19:59:38.353Z,42.43
2023-02-28T20:02:14.879Z,43.43
2023-02-28T20:04:47.558Z,45.13
2023-02-28T20:07:17.021Z,44.33
2023-02-28T20:09:47.988Z,45.10
2023-02-28T20:12:25.092Z,43.90
2023-02-28T20:14:57.043Z,44.93
2023-02-28T20:17:26.477Z,44.33
2023-02-28T20:19:55.580Z,44.60
2023-02-28T20:22:24.457Z,46.28
2023-02-28T20:24:55.048Z,46.50
2023-02-28T20:27:23.973Z,44.97
2023-02-28T20:29:53.305Z,47.20
2023-02-28T20:32:22.227Z,45.20
2023-02-28T20:34:51.293Z,46.50
2023-02-28T20:37:20.296Z,47.30
2023-02-28T20:39:49.725Z,50.77
2023-02-28T20:42:20.294Z,48.03
2023-02-28T20:44:49.409Z,52.17
2023-02-28T20:47:18.290Z,48.13
2023-02-28T20:49:47.462Z,50.13
2023-02-28T20:52:16.367Z,49.37
2023-02-28T20:54:45.588Z,53.90
2023-02-28T20:57:14.498Z,52.83
2023-02-28T20:59:44.986Z,55.13
2023-02-28T21:02:17.960Z,52.77
2023-02-28T21:04:47.197Z,55.40
2023-02-28T21:07:16.448Z,54.33
2023-02-28T21:09:45.616Z,51.63
2023-02-28T21:12:14.470Z,55.90
2023-02-28T21:14:45.014Z,52.63
2023-02-28T21:17:13.803Z,54.40
2023-02-28T21:19:42.998Z,57.30
2023-02-28T21:22:12.054Z,58.37
2023-02-28T21:24:41.393Z,60.23
2023-02-28T21:27:10.216Z,59.77
2023-02-28T21:29:39.626Z,59.97
2023-02-28T21:32:09.958Z,59.63
2023-02-28T21:34:39.432Z,58.73
2023-02-28T21:37:08.647Z,58.57
2023-02-28T21:39:37.858Z,59.70
2023-02-28T21:42:06.796Z,60.67
2023-02-28T21:44:35.978Z,59.90
2023-02-28T21:47:05.437Z,60.77
2023-02-28T21:49:36.125Z,60.17
2023-02-28T21:52:05.018Z,60.33
2023-02-28T21:54:34.136Z,57.83
2023-02-28T21:57:03.084Z,58.93
2023-02-28T21:59:32.432Z,57.03
2023-02-28T22:02:01.342Z,54.80
2023-02-28T22:04:30.436Z,54.87
2023-02-28T22:07:00.624Z,55.40
2023-02-28T22:09:30.584Z,57.47
2023-02-28T22:11:59.939Z,56.63
2023-02-28T22:14:29.118Z,56.43
2023-02-28T22:16:58.446Z,54.13
2023-02-28T22:19:29.058Z,55.97
2023-02-28T22:22:00.045Z,56.33
2023-02-28T22:24:28.917Z,54.47
2023-02-28T22:26:58.544Z,55.37
2023-02-28T22:29:27.370Z,59.60
2023-02-28T22:31:56.488Z,59.07
2023-02-28T22:34:25.334Z,60.57
2023-02-28T22:36:54.453Z,56.37
2023-02-28T22:39:25.717Z,58.53
2023-02-28T22:41:57.018Z,58.47
2023-02-28T22:44:25.841Z,57.90
2023-02-28T22:46:55.920Z,58.73
2023-02-28T22:49:25.136Z,58.50
2023-02-28T22:51:54.334Z,58.63
2023-02-28T22:54:24.494Z,59.63
2023-02-28T22:56:53.550Z,58.53
2023-02-28T22:59:22.931Z,57.77
2023-02-28T23:01:52.031Z,60.13
2023-02-28T23:04:20.932Z,59.63
2023-02-28T23:06:50.117Z,57.73
2023-02-28T23:09:21.562Z,57.70
2023-02-28T23:11:53.997Z,59.07
2023-02-28T23:14:23.283Z,57.10
2023-02-28T23:16:55.866Z,59.33
2023-02-28T23:19:27.845Z,57.17
2023-02-28T23:21:57.763Z,54.50
2023-02-28T23:24:28.938Z,53.73
2023-02-28T23:27:04.405Z,55.43
2023-02-28T23:29:34.238Z,53.03
2023-02-28T23:32:03.995Z,53.23
2023-02-28T23:34:33.400Z,51.10
2023-02-28T23:37:03.822Z,53.37
2023-02-28T23:39:33.001Z,53.37
2023-02-28T23:42:03.526Z,51.37
2023-02-28T23:44:32.475Z,50.47
2023-02-28T23:47:01.588Z,49.70
2023-02-28T23:49:30.387Z,50.10
2023-02-28T23:52:00.036Z,48.53
2023-02-28T23:54:29.747Z,52.03
2023-02-28T23:56:59.036Z,49.40
2023-02-28T23:59:29.749Z,49.80
